Time;durP1;ratioP1;P1;durP2;ratioP2;P2;SDS_P1;SDS_P2;PMS_P1;PMS_P2;Temp;Humidity;BMP_temperature;BMP_pressure;BME280_temperature;BME280_humidity;BME280_pressure;Samples;Min_cycle;Max_cycle;Signal;HPM_P1;HPM_P2
2021/04/26 00:01:39;;;;;;;4.70;1.60;;;17.90;46.50;;;;;;5005402;28;20236;-76
2021/04/26 00:04:06;;;;;;;5.07;1.85;;;17.90;46.60;;;;;;4986842;28;20182;-75
2021/04/26 00:06:32;;;;;;;5.43;1.80;;;17.90;46.60;;;;;;4987032;28;20247;-76
2021/04/26 00:08:59;;;;;;;6.63;2.08;;;17.90;46.60;;;;;;5003925;28;20188;-76
2021/04/26 00:11:24;;;;;;;4.85;1.85;;;17.80;46.60;;;;;;4986662;28;20184;-76
2021/04/26 00:13:51;;;;;;;5.00;1.63;;;17.80;46.80;;;;;;4970483;28;20164;-76
2021/04/26 00:16:17;;;;;;;3.75;1.60;;;17.80;46.60;;;;;;5005283;28;20168;-76
2021/04/26 00:18:43;;;;;;;4.88;1.70;;;17.80;46.50;;;;;;5004723;28;20156;-76
2021/04/26 00:21:10;;;;;;;4.57;1.70;;;17.80;46.50;;;;;;5005015;28;20164;-76
2021/04/26 00:23:36;;;;;;;5.25;1.45;;;17.80;46.60;;;;;;4986811;28;20216;-75
2021/04/26 00:26:03;;;;;;;2.33;1.50;;;17.80;46.60;;;;;;5003984;28;20623;-76
2021/04/26 00:28:30;;;;;;;5.97;1.83;;;17.80;46.80;;;;;;5003732;28;20192;-76
2021/04/26 00:30:56;;;;;;;2.78;1.80;;;17.80;46.60;;;;;;4971322;28;20627;-76
2021/04/26 00:33:23;;;;;;;5.03;2.50;;;17.80;46.50;;;;;;4985835;28;20188;-79
2021/04/26 00:35:48;;;;;;;4.68;2.00;;;17.80;46.60;;;;;;4986185;28;20631;-76
2021/04/26 00:38:16;;;;;;;6.80;1.60;;;17.80;47.30;;;;;;4986428;28;20183;-75
2021/04/26 00:40:42;;;;;;;3.35;1.52;;;17.80;46.70;;;;;;5002874;28;20203;-76
2021/04/26 00:43:09;;;;;;;3.72;1.65;;;17.80;46.70;;;;;;4985650;28;20219;-76
2021/04/26 00:45:35;;;;;;;4.60;1.85;;;17.80;46.60;;;;;;5003087;28;20167;-76
2021/04/26 00:48:01;;;;;;;2.70;1.40;;;17.80;46.70;;;;;;5002511;28;20159;-77
2021/04/26 00:50:29;;;;;;;4.32;1.90;;;17.80;46.70;;;;;;4985652;28;20184;-76
2021/04/26 00:52:56;;;;;;;5.28;1.60;;;17.80;46.50;;;;;;5003160;28;20152;-77
2021/04/26 00:55:26;;;;;;;5.80;1.50;;;17.80;46.70;;;;;;5003344;28;20191;-76
2021/04/26 00:57:52;;;;;;;4.65;1.33;;;17.80;46.60;;;;;;4985683;28;20156;-76
2021/04/26 01:00:21;;;;;;;2.70;1.40;;;17.80;46.70;;;;;;5003059;28;20156;-75
2021/04/26 01:02:47;;;;;;;5.25;1.58;;;17.80;46.60;;;;;;5002048;28;20666;-76
2021/04/26 01:05:21;;;;;;;5.43;2.13;;;17.80;46.50;;;;;;5002277;28;20172;-76
2021/04/26 01:07:48;;;;;;;3.97;1.50;;;17.80;46.60;;;;;;4986727;28;20162;-76
2021/04/26 01:10:17;;;;;;;5.30;1.75;;;17.80;46.60;;;;;;5002936;28;20180;-76
2021/04/26 01:13:04;;;;;;;2.65;1.40;;;17.80;46.80;;;;;;4985855;28;20156;-76
2021/04/26 01:15:54;;;;;;;5.05;1.83;;;17.80;46.80;;;;;;5003248;28;20256;-76
2021/04/26 01:18:40;;;;;;;4.63;1.77;;;17.70;46.80;;;;;;4985361;28;20172;-76
2021/04/26 01:21:34;;;;;;;4.60;1.55;;;17.70;46.70;;;;;;4983357;28;20201;-75
2021/04/26 01:24:33;;;;;;;5.75;1.83;;;17.70;46.70;;;;;;5003819;28;20240;-76
2021/04/26 01:27:09;;;;;;;6.75;1.65;;;17.70;46.60;;;;;;4985854;28;20222;-75
2021/04/26 01:30:08;;;;;;;7.03;2.00;;;17.70;46.70;;;;;;5003106;28;20647;-76
2021/04/26 01:33:04;;;;;;;7.15;1.88;;;17.70;46.40;;;;;;4985351;28;20172;-75
2021/04/26 01:35:31;;;;;;;4.70;1.70;;;17.70;46.70;;;;;;4980466;28;20231;-76
2021/04/26 01:38:05;;;;;;;3.72;1.60;;;17.70;46.70;;;;;;4985128;28;20211;-76
2021/04/26 01:40:32;;;;;;;3.88;1.60;;;17.70;46.80;;;;;;4985450;28;20211;-76
2021/04/26 01:42:59;;;;;;;5.53;2.20;;;17.70;46.70;;;;;;4985651;28;20161;-76
2021/04/26 01:45:25;;;;;;;4.72;1.80;;;17.70;46.70;;;;;;4984961;28;20593;-75
2021/04/26 01:47:56;;;;;;;3.70;1.55;;;17.70;46.60;;;;;;4969134;28;20184;-76
2021/04/26 01:50:23;;;;;;;2.97;1.58;;;17.70;46.80;;;;;;5002232;28;20187;-76
2021/04/26 01:52:50;;;;;;;5.55;1.75;;;17.70;46.70;;;;;;4985756;28;20152;-76
2021/04/26 01:55:22;;;;;;;4.22;1.48;;;17.70;46.60;;;;;;5002424;28;20159;-76
2021/04/26 01:57:48;;;;;;;5.25;1.55;;;17.70;46.60;;;;;;4985672;28;20162;-75
2021/04/26 02:00:25;;;;;;;5.97;1.58;;;17.70;46.60;;;;;;4985150;28;20203;-76
2021/04/26 02:02:59;;;;;;;4.38;2.10;;;17.70;46.60;;;;;;5002570;28;20227;-76
2021/04/26 02:05:26;;;;;;;3.30;1.63;;;17.70;46.50;;;;;;5002433;28;20160;-76
2021/04/26 02:07:53;;;;;;;4.35;1.70;;;17.70;46.60;;;;;;5002898;28;20174;-75
2021/04/26 02:10:21;;;;;;;2.90;1.42;;;17.70;46.60;;;;;;4985213;28;20191;-76
2021/04/26 02:12:48;;;;;;;5.18;1.80;;;17.70;46.80;;;;;;4984910;28;20247;-75
2021/04/26 02:15:16;;;;;;;4.47;1.50;;;17.70;46.70;;;;;;5001911;28;20156;-76
2021/04/26 02:17:43;;;;;;;3.85;1.63;;;17.70;46.70;;;;;;4985059;28;20149;-76
2021/04/26 02:20:12;;;;;;;1.50;1.40;;;17.70;46.70;;;;;;4984913;28;20160;-76
2021/04/26 02:22:38;;;;;;;4.40;1.50;;;17.70;46.60;;;;;;5002043;28;20247;-75
2021/04/26 02:25:06;;;;;;;2.95;1.50;;;17.70;46.70;;;;;;5003194;28;20171;-75
2021/04/26 02:27:33;;;;;;;4.32;1.80;;;17.70;46.60;;;;;;4984543;28;20191;-76
2021/04/26 02:30:00;;;;;;;3.35;1.60;;;17.70;46.60;;;;;;5001544;28;20191;-76
2021/04/26 02:32:52;;;;;;;5.20;1.52;;;17.70;46.70;;;;;;5002059;28;20156;-75
2021/04/26 02:35:24;;;;;;;2.95;1.60;;;17.70;46.70;;;;;;4991290;28;20548;-76
2021/04/26 02:37:55;;;;;;;4.10;1.85;;;17.70;46.80;;;;;;4985274;28;20188;-75
2021/04/26 02:40:21;;;;;;;4.13;1.98;;;17.70;46.70;;;;;;4984583;28;20172;-77
2021/04/26 02:42:48;;;;;;;2.72;1.55;;;17.60;46.70;;;;;;5001410;28;20163;-75
2021/04/26 02:45:20;;;;;;;3.70;1.77;;;17.70;46.70;;;;;;4984789;28;20164;-76
2021/04/26 02:47:47;;;;;;;3.35;1.63;;;17.70;46.60;;;;;;4967751;28;20176;-77
2021/04/26 02:50:18;;;;;;;3.95;1.40;;;17.70;46.60;;;;;;4983701;28;20203;-76
2021/04/26 02:52:46;;;;;;;2.78;1.67;;;17.70;46.60;;;;;;4984906;28;20168;-76
2021/04/26 02:55:21;;;;;;;3.58;1.58;;;17.70;46.60;;;;;;4984929;28;20157;-76
2021/04/26 02:57:48;;;;;;;2.38;1.40;;;17.60;46.80;;;;;;5001744;28;20162;-76
2021/04/26 03:00:17;;;;;;;2.50;1.40;;;17.60;46.70;;;;;;4985004;28;20167;-76
2021/04/26 03:02:44;;;;;;;2.58;1.60;;;17.60;46.70;;;;;;4985070;28;20259;-77
2021/04/26 03:05:13;;;;;;;2.72;1.65;;;17.60;46.60;;;;;;5002053;28;20164;-76
2021/04/26 03:07:39;;;;;;;3.28;1.48;;;17.60;46.70;;;;;;4984886;28;20164;-75
2021/04/26 03:10:07;;;;;;;1.85;1.30;;;17.60;46.60;;;;;;4984705;28;20196;-76
2021/04/26 03:12:34;;;;;;;3.15;1.48;;;17.60;46.70;;;;;;5002163;28;20157;-75
2021/04/26 03:15:10;;;;;;;4.07;1.58;;;17.60;46.70;;;;;;4984987;28;20168;-76
2021/04/26 03:17:37;;;;;;;4.93;1.77;;;17.60;46.80;;;;;;5001612;28;20159;-76
2021/04/26 03:20:08;;;;;;;1.73;1.42;;;17.60;46.70;;;;;;5002473;28;20167;-77
2021/04/26 03:22:35;;;;;;;2.30;1.33;;;17.60;46.80;;;;;;4985036;28;20167;-75
2021/04/26 03:25:01;;;;;;;3.10;1.65;;;17.60;46.70;;;;;;4968458;28;20186;-76
2021/04/26 03:27:28;;;;;;;5.53;2.13;;;17.60;46.60;;;;;;4986758;28;20630;-76
2021/04/26 03:29:54;;;;;;;4.90;1.83;;;17.60;46.60;;;;;;4989161;28;20188;-77
2021/04/26 03:32:20;;;;;;;2.92;1.40;;;17.60;46.60;;;;;;4988987;28;20171;-76
2021/04/26 03:34:47;;;;;;;2.75;1.33;;;17.60;46.70;;;;;;4989101;28;20685;-76
2021/04/26 03:37:24;;;;;;;5.85;1.83;;;17.60;46.50;;;;;;4989169;28;20546;-76
2021/04/26 03:39:51;;;;;;;5.00;1.83;;;17.60;46.60;;;;;;4988951;28;20920;-76
2021/04/26 03:42:36;;;;;;;3.20;1.60;;;17.60;46.60;;;;;;4988446;28;20164;-76
2021/04/26 03:45:03;;;;;;;3.40;1.52;;;17.60;46.60;;;;;;4987254;28;20179;-76
2021/04/26 03:47:30;;;;;;;3.17;1.70;;;17.60;46.60;;;;;;5006351;28;20536;-76
2021/04/26 03:49:57;;;;;;;4.97;1.60;;;17.60;46.70;;;;;;5006111;28;20217;-76
2021/04/26 03:52:23;;;;;;;3.28;1.58;;;17.60;46.60;;;;;;5007252;28;20160;-77
2021/04/26 03:54:49;;;;;;;3.22;1.63;;;17.60;46.70;;;;;;5006381;28;20153;-76
2021/04/26 03:57:23;;;;;;;4.32;1.60;;;17.60;46.70;;;;;;4973022;28;20643;-76
2021/04/26 03:59:50;;;;;;;6.60;1.90;;;17.60;47.30;;;;;;5006173;28;20160;-76
2021/04/26 04:02:16;;;;;;;1.95;1.50;;;17.60;46.60;;;;;;5003939;28;20220;-76
2021/04/26 04:04:42;;;;;;;3.67;1.58;;;17.60;46.40;;;;;;5003551;28;20255;-76
2021/04/26 04:07:08;;;;;;;3.05;1.40;;;17.60;46.60;;;;;;5002775;28;20188;-75
2021/04/26 04:09:35;;;;;;;2.92;1.50;;;17.70;46.20;;;;;;5002600;28;20188;-75
2021/04/26 04:12:01;;;;;;;2.42;1.40;;;17.70;46.00;;;;;;4983938;28;20188;-75
2021/04/26 04:14:28;;;;;;;2.65;1.40;;;17.70;46.10;;;;;;5001234;28;20163;-77
2021/04/26 04:16:54;;;;;;;1.73;1.48;;;17.70;45.70;;;;;;5001322;28;20161;-75
2021/04/26 04:19:20;;;;;;;4.07;1.63;;;17.80;45.40;;;;;;5001499;28;20165;-76
2021/04/26 04:21:47;;;;;;;3.10;1.25;;;17.90;45.10;;;;;;5001672;28;20179;-76
2021/04/26 04:24:13;;;;;;;3.63;1.35;;;17.90;45.10;;;;;;5001116;28;20161;-76
2021/04/26 04:26:39;;;;;;;1.55;1.20;;;17.90;45.50;;;;;;5000812;28;20520;-76
2021/04/26 04:29:06;;;;;;;2.10;1.42;;;17.90;45.10;;;;;;5000587;28;20235;-77
2021/04/26 04:31:33;;;;;;;3.72;1.35;;;17.90;45.50;;;;;;5000738;28;20220;-76
2021/04/26 04:33:59;;;;;;;2.78;1.45;;;17.90;45.20;;;;;;5000595;28;20160;-75
2021/04/26 04:36:25;;;;;;;2.78;1.58;;;17.90;45.30;;;;;;5000256;28;20160;-76
2021/04/26 04:38:51;;;;;;;3.50;1.27;;;18.00;45.40;;;;;;4999813;28;20168;-75
2021/04/26 04:41:17;;;;;;;3.00;1.73;;;18.00;45.10;;;;;;5000515;28;20172;-77
2021/04/26 04:43:44;;;;;;;2.58;1.67;;;18.00;45.40;;;;;;5000064;28;20168;-76
2021/04/26 04:46:10;;;;;;;2.33;1.40;;;17.90;45.10;;;;;;4982680;28;20190;-76
2021/04/26 04:48:37;;;;;;;1.95;1.20;;;18.00;45.00;;;;;;4999787;28;20238;-76
2021/04/26 04:51:04;;;;;;;2.17;1.40;;;18.00;45.10;;;;;;5000842;28;20157;-76
2021/04/26 04:53:39;;;;;;;2.58;1.48;;;18.00;45.00;;;;;;4982620;28;20160;-76
2021/04/26 04:56:06;;;;;;;1.65;1.25;;;18.00;45.10;;;;;;4966769;28;20229;-76
2021/04/26 04:58:32;;;;;;;2.25;1.25;;;18.00;44.60;;;;;;5000618;28;20160;-75
2021/04/26 05:00:58;;;;;;;2.58;1.58;;;18.00;45.00;;;;;;4999394;28;20183;-76
2021/04/26 05:03:25;;;;;;;1.88;1.30;;;18.00;44.90;;;;;;4982042;28;20164;-76
2021/04/26 05:05:51;;;;;;;2.80;1.75;;;18.00;44.70;;;;;;4979955;28;20180;-76
2021/04/26 05:08:17;;;;;;;2.95;1.38;;;18.00;44.60;;;;;;4985216;28;20639;-76
2021/04/26 05:10:43;;;;;;;4.38;1.40;;;18.00;44.60;;;;;;5001329;28;20618;-75
2021/04/26 05:13:09;;;;;;;3.20;1.48;;;18.00;44.80;;;;;;4983060;28;20188;-76
2021/04/26 05:15:35;;;;;;;3.05;1.30;;;18.10;44.40;;;;;;5001637;28;20171;-77
2021/04/26 05:18:03;;;;;;;2.45;1.30;;;18.10;44.50;;;;;;5006844;28;20651;-77
2021/04/26 05:20:29;;;;;;;1.52;1.30;;;18.10;44.60;;;;;;4984051;28;20547;-76
2021/04/26 05:22:54;;;;;;;1.73;1.25;;;18.10;44.50;;;;;;5001943;28;20165;-77
2021/04/26 05:25:20;;;;;;;1.50;1.40;;;18.10;44.30;;;;;;5002117;28;20164;-76
2021/04/26 05:27:46;;;;;;;2.78;1.50;;;18.10;44.30;;;;;;5001993;28;20180;-77
2021/04/26 05:30:12;;;;;;;2.40;1.45;;;18.10;44.60;;;;;;4982362;28;20282;-76
2021/04/26 05:32:38;;;;;;;3.45;1.45;;;18.10;43.90;;;;;;4967005;28;20198;-76
2021/04/26 05:35:06;;;;;;;1.80;1.50;;;18.10;44.00;;;;;;4967461;28;20160;-76
2021/04/26 05:37:32;;;;;;;2.35;1.45;;;18.10;44.00;;;;;;4999587;28;20175;-76
2021/04/26 05:39:58;;;;;;;1.90;1.30;;;18.10;44.00;;;;;;4999997;28;20161;-76
2021/04/26 05:42:25;;;;;;;2.42;1.50;;;18.10;44.00;;;;;;4999269;28;20160;-76
2021/04/26 05:44:51;;;;;;;2.28;1.50;;;18.10;44.30;;;;;;5000087;28;20168;-76
2021/04/26 05:47:17;;;;;;;1.92;1.05;;;18.10;44.40;;;;;;4982724;28;20168;-77
2021/04/26 05:49:42;;;;;;;1.50;1.30;;;18.10;43.90;;;;;;4981639;28;20242;-76
2021/04/26 05:52:08;;;;;;;1.70;1.42;;;18.10;44.00;;;;;;4979951;28;20176;-75
2021/04/26 05:54:34;;;;;;;1.83;1.30;;;18.10;44.20;;;;;;4999261;28;20168;-76
2021/04/26 05:57:00;;;;;;;2.33;1.35;;;18.10;43.90;;;;;;4982225;28;20168;-76
2021/04/26 05:59:29;;;;;;;3.03;1.27;;;18.10;43.90;;;;;;4982434;28;20680;-76
2021/04/26 06:01:54;;;;;;;1.85;1.20;;;18.10;43.60;;;;;;5000750;28;20232;-77
2021/04/26 06:04:20;;;;;;;1.98;1.25;;;18.10;44.10;;;;;;5001285;28;20180;-76
2021/04/26 06:06:46;;;;;;;1.90;1.40;;;18.10;44.00;;;;;;5000531;28;20196;-76
2021/04/26 06:09:13;;;;;;;1.65;1.42;;;18.10;43.80;;;;;;5000582;28;20184;-75
2021/04/26 06:11:40;;;;;;;2.65;1.30;;;18.10;44.00;;;;;;5000710;28;20718;-75
2021/04/26 06:14:07;;;;;;;2.55;1.50;;;18.10;43.90;;;;;;4983994;28;20153;-76
2021/04/26 06:16:37;;;;;;;1.73;1.30;;;18.10;44.10;;;;;;5005689;28;20156;-76
2021/04/26 06:19:07;;;;;;;2.22;1.35;;;18.00;44.40;;;;;;5006748;28;20183;-77
2021/04/26 06:21:41;;;;;;;1.48;1.23;;;18.10;44.50;;;;;;4989608;28;20187;-77
2021/04/26 06:24:09;;;;;;;3.30;1.33;;;18.10;44.20;;;;;;4968731;28;20171;-78
2021/04/26 06:26:35;;;;;;;1.77;1.15;;;18.10;44.60;;;;;;4963395;28;20172;-78
2021/04/26 06:29:01;;;;;;;2.72;1.27;;;18.10;44.50;;;;;;4977077;28;20204;-77
2021/04/26 06:31:28;;;;;;;2.15;1.30;;;18.10;44.10;;;;;;4962655;28;20171;-77
2021/04/26 06:33:54;;;;;;;2.53;1.40;;;18.10;44.10;;;;;;4995842;28;20164;-77
2021/04/26 06:36:20;;;;;;;2.72;1.33;;;18.10;44.00;;;;;;4963222;28;20215;-76
2021/04/26 06:38:46;;;;;;;2.85;1.40;;;18.10;44.60;;;;;;4978678;28;20172;-77
2021/04/26 06:41:12;;;;;;;5.20;1.65;;;18.10;44.70;;;;;;4994377;28;20160;-77
2021/04/26 06:43:38;;;;;;;2.70;1.52;;;18.20;43.50;;;;;;4994114;28;20699;-77
2021/04/26 06:46:05;;;;;;;2.90;1.75;;;18.20;44.50;;;;;;4992759;28;20599;-76
2021/04/26 06:48:31;;;;;;;3.53;1.50;;;18.20;44.30;;;;;;4976703;28;20647;-78
2021/04/26 06:50:58;;;;;;;4.50;1.60;;;18.20;45.00;;;;;;4994158;28;20247;-77
2021/04/26 06:53:24;;;;;;;6.53;1.70;;;18.10;45.00;;;;;;4994099;28;20157;-77
2021/04/26 06:55:50;;;;;;;2.95;1.35;;;18.10;44.60;;;;;;4977100;28;20616;-77
2021/04/26 06:58:17;;;;;;;2.53;1.45;;;18.10;44.50;;;;;;4976742;28;20156;-76
2021/04/26 07:00:42;;;;;;;2.28;1.40;;;18.10;44.80;;;;;;4994032;28;20171;-77
2021/04/26 07:03:09;;;;;;;2.10;1.42;;;18.10;44.60;;;;;;4997604;28;20164;-77
2021/04/26 07:05:35;;;;;;;1.42;1.23;;;18.10;44.80;;;;;;4981587;28;20227;-77
2021/04/26 07:08:02;;;;;;;1.67;1.40;;;18.10;44.60;;;;;;4997844;28;20160;-77
2021/04/26 07:10:32;;;;;;;2.28;1.30;;;18.10;44.80;;;;;;4997378;28;20188;-77
2021/04/26 07:13:00;;;;;;;1.92;1.40;;;18.10;44.80;;;;;;4981933;28;20156;-77
2021/04/26 07:15:27;;;;;;;2.92;1.52;;;18.10;44.80;;;;;;4965082;28;20171;-78
2021/04/26 07:17:52;;;;;;;1.85;1.30;;;18.20;44.70;;;;;;4963911;28;20168;-77
2021/04/26 07:20:19;;;;;;;2.40;1.40;;;18.10;44.70;;;;;;4948188;28;20642;-77
2021/04/26 07:22:46;;;;;;;2.28;1.50;;;18.10;44.90;;;;;;4963955;28;20631;-77
2021/04/26 07:25:14;;;;;;;1.60;1.20;;;18.10;44.80;;;;;;4964557;28;20164;-77
2021/04/26 07:27:41;;;;;;;2.72;1.52;;;18.10;44.60;;;;;;4965381;28;20631;-77
2021/04/26 07:30:27;;;;;;;2.20;1.50;;;18.20;44.80;;;;;;4984064;28;20192;-77
2021/04/26 07:32:54;;;;;;;1.58;1.33;;;18.20;44.60;;;;;;4965959;28;20746;-77
2021/04/26 07:35:21;;;;;;;3.22;1.45;;;18.20;44.80;;;;;;4949717;28;20254;-77
2021/04/26 07:37:50;;;;;;;3.42;1.80;;;18.10;45.40;;;;;;4965686;28;20167;-77
2021/04/26 07:40:16;;;;;;;2.47;1.27;;;18.10;45.60;;;;;;4922295;29;20193;-77
2021/04/26 07:42:44;;;;;;;4.07;1.80;;;18.10;45.30;;;;;;4922291;29;20202;-77
2021/04/26 07:45:12;;;;;;;4.07;1.88;;;18.10;46.00;;;;;;4938124;29;20260;-77
2021/04/26 07:47:38;;;;;;;4.93;2.08;;;18.10;46.80;;;;;;4945382;29;20182;-78
2021/04/26 07:50:06;;;;;;;3.88;1.70;;;18.10;47.70;;;;;;4961750;29;20566;-79
2021/04/26 07:52:31;;;;;;;5.07;1.83;;;18.10;46.50;;;;;;4965390;29;20162;-78
2021/04/26 07:54:58;;;;;;;4.70;1.40;;;18.10;46.40;;;;;;4941642;29;20185;-80
2021/04/26 07:57:26;;;;;;;2.35;1.58;;;18.10;46.00;;;;;;4930688;29;20190;-78
2021/04/26 07:59:53;;;;;;;2.42;1.33;;;18.10;45.70;;;;;;4930333;29;20186;-78
2021/04/26 08:02:19;;;;;;;3.08;1.58;;;18.20;45.50;;;;;;4915380;29;20320;-81
2021/04/26 08:04:54;;;;;;;1.98;1.20;;;18.20;46.30;;;;;;4915727;29;20717;-79
2021/04/26 08:07:19;;;;;;;3.60;1.70;;;18.20;45.80;;;;;;4931674;29;20229;-79
2021/04/26 08:09:46;;;;;;;2.60;1.67;;;18.20;46.30;;;;;;4915176;29;20221;-79
2021/04/26 08:12:12;;;;;;;3.08;1.50;;;18.20;46.00;;;;;;4984661;28;20184;-80
2021/04/26 08:14:38;;;;;;;5.15;1.73;;;18.10;45.80;;;;;;4989003;28;20191;-80
2021/04/26 08:17:04;;;;;;;3.80;1.63;;;18.20;46.10;;;;;;4989350;28;20165;-80
2021/04/26 08:19:30;;;;;;;5.18;2.10;;;18.20;46.00;;;;;;4989656;28;20160;-81
2021/04/26 08:21:57;;;;;;;3.88;1.67;;;18.10;47.80;;;;;;4973935;28;20175;-80
2021/04/26 08:24:24;;;;;;;4.50;1.80;;;18.10;47.70;;;;;;4973453;28;20620;-80
2021/04/26 08:26:51;;;;;;;4.63;2.20;;;18.10;47.00;;;;;;4973013;28;20175;-80
2021/04/26 08:29:17;;;;;;;10.75;2.17;;;18.10;48.50;;;;;;5006213;28;20192;-80
2021/04/26 08:31:44;;;;;;;3.90;1.70;;;18.10;47.40;;;;;;4988566;28;20167;-81
2021/04/26 08:34:10;;;;;;;5.05;2.08;;;18.10;47.60;;;;;;4988507;28;20160;-79
2021/04/26 08:36:37;;;;;;;3.92;1.60;;;18.10;48.50;;;;;;4987782;28;20159;-79
2021/04/26 08:39:05;;;;;;;3.42;1.90;;;18.10;48.10;;;;;;4972102;28;20191;-80
2021/04/26 08:41:31;;;;;;;4.70;1.80;;;18.10;48.40;;;;;;5005139;28;20226;-81
2021/04/26 08:43:58;;;;;;;6.32;2.10;;;18.10;48.10;;;;;;5005465;28;20280;-80
2021/04/26 08:46:32;;;;;;;2.60;1.70;;;18.10;48.40;;;;;;4971790;28;20686;-80
2021/04/26 08:48:58;;;;;;;8.70;1.90;;;18.10;48.20;;;;;;4970147;28;20195;-79
2021/04/26 08:51:24;;;;;;;3.75;1.85;;;18.10;48.40;;;;;;4952440;28;20516;-81
2021/04/26 08:53:51;;;;;;;3.15;2.03;;;18.10;47.90;;;;;;4986876;28;20165;-79
2021/04/26 08:56:17;;;;;;;2.17;1.63;;;18.10;48.20;;;;;;4988465;28;20219;-79
2021/04/26 08:58:43;;;;;;;5.47;1.90;;;18.10;48.80;;;;;;5005786;28;20160;-79
2021/04/26 09:01:09;;;;;;;4.03;1.90;;;18.10;48.60;;;;;;5005546;28;20271;-79
2021/04/26 09:03:36;;;;;;;3.78;2.03;;;18.10;49.10;;;;;;5003371;28;20160;-78
2021/04/26 09:06:07;;;;;;;3.13;2.08;;;18.10;49.40;;;;;;5002842;28;20251;-79
2021/04/26 09:08:33;;;;;;;5.15;1.60;;;18.10;48.20;;;;;;5002452;28;20160;-77
2021/04/26 09:11:15;;;;;;;4.22;1.60;;;18.10;48.10;;;;;;4985837;28;20156;-78
2021/04/26 09:13:47;;;;;;;3.75;2.10;;;18.20;48.80;;;;;;4987005;28;20152;-78
2021/04/26 09:16:34;;;;;;;3.20;1.50;;;18.10;49.10;;;;;;5003170;28;20153;-80
2021/04/26 09:19:00;;;;;;;2.50;1.60;;;18.10;49.90;;;;;;5001541;28;20187;-78
2021/04/26 09:21:29;;;;;;;3.65;1.70;;;18.10;49.40;;;;;;4987400;28;20167;-78
2021/04/26 09:24:16;;;;;;;2.28;1.52;;;18.10;50.60;;;;;;4987727;28;20172;-78
2021/04/26 09:26:44;;;;;;;5.90;1.80;;;18.10;51.50;;;;;;5005051;28;20163;-78
2021/04/26 09:29:18;;;;;;;3.38;1.80;;;18.00;51.60;;;;;;5004528;28;20218;-78
2021/04/26 09:32:01;;;;;;;4.47;2.20;;;18.00;51.50;;;;;;5004401;28;20159;-78
2021/04/26 09:34:35;;;;;;;2.83;1.75;;;18.10;50.80;;;;;;4985408;28;20544;-78
2021/04/26 09:37:09;;;;;;;4.85;1.60;;;18.10;51.20;;;;;;5002818;28;20160;-77
2021/04/26 09:40:00;;;;;;;4.22;1.80;;;18.10;50.40;;;;;;4986362;28;20168;-79
2021/04/26 09:42:53;;;;;;;3.38;1.70;;;18.10;49.80;;;;;;4906144;29;20272;-80
2021/04/26 09:45:25;;;;;;;3.40;1.70;;;18.20;50.20;;;;;;4908172;29;20159;-78
2021/04/26 09:48:12;;;;;;;2.85;1.90;;;18.20;49.60;;;;;;4906578;29;20195;-79
2021/04/26 09:50:57;;;;;;;3.72;1.80;;;18.20;49.80;;;;;;4875483;29;20199;-79
2021/04/26 09:53:28;;;;;;;4.40;1.70;;;18.20;49.80;;;;;;4907160;29;20184;-78
2021/04/26 09:56:20;;;;;;;2.53;1.77;;;18.20;49.00;;;;;;4906949;29;20164;-78
2021/04/26 09:58:56;;;;;;;4.30;1.85;;;18.30;49.60;;;;;;4907161;29;20254;-79
2021/04/26 10:01:22;;;;;;;3.42;2.00;;;18.20;49.60;;;;;;4906522;29;20230;-79
2021/04/26 10:03:49;;;;;;;3.35;1.80;;;18.20;49.30;;;;;;4905936;29;20179;-78
2021/04/26 10:06:24;;;;;;;3.67;1.52;;;18.30;49.50;;;;;;4905582;29;20262;-79
2021/04/26 10:08:52;;;;;;;3.08;2.03;;;18.30;49.10;;;;;;4902005;29;20600;-77
2021/04/26 10:11:19;;;;;;;3.70;1.55;;;18.30;50.00;;;;;;4882949;29;20277;-77
2021/04/26 10:13:45;;;;;;;2.67;1.70;;;18.30;49.50;;;;;;4898415;29;20539;-79
2021/04/26 10:16:32;;;;;;;2.88;1.95;;;18.20;49.60;;;;;;4883713;29;20175;-79
2021/04/26 10:18:58;;;;;;;3.70;1.67;;;18.30;49.20;;;;;;4914161;28;20179;-78
2021/04/26 10:21:23;;;;;;;5.57;1.98;;;18.30;49.80;;;;;;4965263;28;20171;-78
2021/04/26 10:23:50;;;;;;;4.30;1.80;;;18.30;49.40;;;;;;4998786;28;20179;-79
2021/04/26 10:26:50;;;;;;;4.05;1.77;;;18.30;50.20;;;;;;4997888;28;20168;-78
2021/04/26 10:29:27;;;;;;;5.57;1.70;;;18.30;49.80;;;;;;4998276;28;20212;-78
2021/04/26 10:32:13;;;;;;;5.90;1.90;;;18.30;49.70;;;;;;4999985;28;20156;-78
2021/04/26 10:34:42;;;;;;;3.28;2.13;;;18.20;50.60;;;;;;4984095;28;20511;-78
2021/04/26 10:37:19;;;;;;;4.45;1.80;;;18.30;50.00;;;;;;4997953;28;20650;-78
2021/04/26 10:39:56;;;;;;;3.92;1.80;;;18.30;49.80;;;;;;4999125;28;20244;-78
2021/04/26 10:42:39;;;;;;;3.15;1.83;;;18.30;49.90;;;;;;5001127;28;20168;-78
2021/04/26 10:45:22;;;;;;;2.38;1.75;;;18.20;50.30;;;;;;4968167;28;20191;-77
2021/04/26 10:48:04;;;;;;;4.78;2.00;;;18.30;49.60;;;;;;4982157;28;20171;-78
2021/04/26 10:50:40;;;;;;;2.88;1.88;;;18.30;50.00;;;;;;4982599;28;20212;-78
2021/04/26 10:53:06;;;;;;;3.40;1.70;;;18.30;50.10;;;;;;4999282;28;20306;-78
2021/04/26 10:55:39;;;;;;;3.08;1.67;;;18.30;50.40;;;;;;5000422;28;20209;-79
2021/04/26 10:58:21;;;;;;;3.20;1.67;;;18.30;51.20;;;;;;4981044;28;20164;-78
2021/04/26 11:00:49;;;;;;;3.45;2.00;;;18.20;51.70;;;;;;4980894;28;20643;-78
2021/04/26 11:03:18;;;;;;;2.67;1.85;;;18.20;51.70;;;;;;4966630;28;20179;-77
2021/04/26 11:05:45;;;;;;;2.97;1.67;;;18.20;51.60;;;;;;5002147;28;20155;-78
2021/04/26 11:11:30;;;;;;;4.40;1.92;;;18.30;50.90;;;;;;4941902;29;20241;-79
2021/04/26 11:13:57;;;;;;;3.25;1.70;;;18.30;50.00;;;;;;4937169;29;20201;-79
2021/04/26 11:16:32;;;;;;;3.20;1.80;;;18.30;50.40;;;;;;4939671;29;20375;-77
2021/04/26 11:18:57;;;;;;;2.47;1.90;;;18.30;50.70;;;;;;4940650;29;20215;-78
2021/04/26 11:21:45;;;;;;;5.22;1.58;;;18.30;50.00;;;;;;4940449;29;20177;-78
2021/04/26 11:24:23;;;;;;;3.60;2.00;;;18.30;50.40;;;;;;4940285;29;20611;-77
2021/04/26 11:27:15;;;;;;;3.20;1.73;;;18.30;49.90;;;;;;4939857;29;20205;-77
2021/04/26 11:29:41;;;;;;;3.28;1.90;;;18.30;49.80;;;;;;4938370;29;20224;-77
2021/04/26 11:32:11;;;;;;;4.07;1.70;;;18.30;50.70;;;;;;4938493;29;20249;-78
2021/04/26 11:35:00;;;;;;;3.05;1.60;;;18.30;50.10;;;;;;4938757;29;20182;-78
2021/04/26 11:37:30;;;;;;;4.20;1.90;;;18.30;50.80;;;;;;4936434;29;20183;-76
2021/04/26 11:39:56;;;;;;;3.38;1.80;;;18.30;49.50;;;;;;4937524;29;20166;-78
2021/04/26 11:42:31;;;;;;;1.75;1.65;;;18.30;49.90;;;;;;4935728;29;20384;-76
2021/04/26 11:44:58;;;;;;;2.78;1.80;;;18.30;50.60;;;;;;4921353;29;20177;-77
2021/04/26 11:47:33;;;;;;;2.90;1.77;;;18.30;50.20;;;;;;4920199;28;20188;-76
2021/04/26 11:50:00;;;;;;;3.38;1.50;;;18.30;49.50;;;;;;4998394;28;20631;-77
2021/04/26 11:52:40;;;;;;;3.22;1.80;;;18.30;50.00;;;;;;4998241;28;20203;-76
2021/04/26 11:55:13;;;;;;;2.63;1.73;;;18.30;49.20;;;;;;4982693;28;20172;-77
2021/04/26 11:57:54;;;;;;;3.95;1.70;;;18.40;49.50;;;;;;4999811;28;20164;-77
2021/04/26 12:00:22;;;;;;;4.35;1.88;;;18.30;49.70;;;;;;4999132;28;20207;-77
2021/04/26 12:02:50;;;;;;;3.88;1.80;;;18.30;50.00;;;;;;4998008;28;20307;-75
2021/04/26 12:05:17;;;;;;;3.30;1.90;;;18.30;50.10;;;;;;4998479;28;21259;-77
2021/04/26 12:07:43;;;;;;;4.30;2.15;;;18.30;48.90;;;;;;4962767;28;20180;-77
2021/04/26 12:10:27;;;;;;;4.93;1.70;;;18.40;50.00;;;;;;4945812;28;20659;-77
2021/04/26 12:12:55;;;;;;;3.38;1.77;;;18.40;50.70;;;;;;4976941;28;20655;-76
2021/04/26 12:15:23;;;;;;;6.03;1.60;;;18.40;50.20;;;;;;4993632;28;20175;-76
2021/04/26 12:17:50;;;;;;;4.32;1.98;;;18.40;50.40;;;;;;4996073;28;20203;-76
2021/04/26 12:20:26;;;;;;;2.28;1.85;;;18.40;50.40;;;;;;4995916;28;20171;-77
2021/04/26 12:22:54;;;;;;;3.85;1.60;;;18.40;50.60;;;;;;4995723;28;20179;-77
2021/04/26 12:25:22;;;;;;;4.10;1.75;;;18.40;51.00;;;;;;4978430;28;20160;-76
2021/04/26 12:27:58;;;;;;;3.90;1.90;;;18.30;50.90;;;;;;4996471;28;20203;-76
2021/04/26 12:30:24;;;;;;;4.05;1.80;;;18.30;50.40;;;;;;4995477;28;20226;-76
2021/04/26 12:32:50;;;;;;;2.85;1.90;;;18.30;50.40;;;;;;4988658;28;20173;-77
2021/04/26 12:35:23;;;;;;;2.90;1.73;;;18.30;50.70;;;;;;4958827;28;20184;-78
2021/04/26 12:37:50;;;;;;;4.05;1.60;;;18.30;50.00;;;;;;4958314;28;20373;-76
2021/04/26 12:40:26;;;;;;;3.50;1.80;;;18.30;49.40;;;;;;4975965;28;20164;-77
2021/04/26 12:42:58;;;;;;;4.70;1.85;;;18.30;50.50;;;;;;4949422;28;20223;-78
2021/04/26 12:45:27;;;;;;;3.95;1.90;;;18.30;50.40;;;;;;4988852;28;20635;-77
2021/04/26 12:47:59;;;;;;;2.63;1.90;;;18.30;50.80;;;;;;4979452;28;20168;-76
2021/04/26 12:50:29;;;;;;;5.10;2.00;;;18.30;50.70;;;;;;4963234;28;20188;-76
2021/04/26 12:53:19;;;;;;;4.22;1.83;;;18.30;50.60;;;;;;4979721;28;20607;-76
2021/04/26 12:56:03;;;;;;;4.70;1.80;;;18.30;50.70;;;;;;4996732;28;20161;-76
2021/04/26 12:58:45;;;;;;;4.75;1.85;;;18.30;50.80;;;;;;4979142;28;20172;-76
2021/04/26 13:01:17;;;;;;;3.03;1.75;;;18.30;51.50;;;;;;4962485;28;20172;-76
2021/04/26 13:03:49;;;;;;;3.58;1.58;;;18.30;50.30;;;;;;4994734;28;20631;-76
2021/04/26 13:06:47;;;;;;;4.78;1.88;;;18.40;49.70;;;;;;4994692;28;20160;-76